METAR stanice u blizini

 

LYBE - Beograd / Surčin, Srbija
Ažurirano: 24/05/2022 19:30
Vedro
Vedro
 Pravac vetra I
Vetar: I 17 km/h
Temperatura: 27°C
Heat Index: 28°C
Tačka rose: 17°C
Vlažnost: 54%
Pritisak: 1008 hPa
Pregled: Vedro
Vidljivost: greater than 10 km
2022/05/24 17:30 LYBE 241730Z 10009KT CAVOK 27/17 Q1008 NOSIG
LYBT - Beograd / Batajnica, Srbija
Ažurirano: 24/05/2022 19:30
Vedro
Vedro
 Pravac vetra I
Vetar: I 17 km/h
Temperatura: 26°C
Tačka rose: 17°C
Vlažnost: 58%
Pritisak: 1007 hPa
Pregled: Vedro
Vidljivost: greater than 10 km
2022/05/24 17:30 LYBT 241730Z 08009KT 040V110 CAVOK 26/17 Q1007 NOSIG
LYVR - Vršac, Srbija
Ažurirano: 24/05/2022 19:30
Vedro
Vedro
 Pravac vetra IJI
Vetar: IJI 20 km/h
Temperatura: 22°C
Tačka rose: 15°C
Vlažnost: 65%
Pritisak: 1008 hPa
Pregled: Vedro
Vidljivost: greater than 10 km
2022/05/24 17:30 LYVR 241730Z AUTO 11011KT 080V140 CAVOK 22/15 Q1008
 
LYKV - Lađevci, Srbija
Ažurirano: 24/05/2022 19:30
Vedro
Vedro
 Pravac vetra ISI
Vetar: ISI 6 km/h
Temperatura: 27°C
Heat Index: 28°C
Tačka rose: 16°C
Vlažnost: 51%
Pritisak: 1008 hPa
Pregled: Vedro
Vidljivost: greater than 10 km
2022/05/24 17:30 LYKV 241730Z 07003KT 040V100 CAVOK 27/16 Q1008 NOSIG
LYNI - Niš, Srbija
Ažurirano: 24/05/2022 19:30
Vedro
Vedro
 Pravac vetra I
Vetar: I 15 km/h
Temperatura: 26°C
Tačka rose: 13°C
Vlažnost: 45%
Pritisak: 1009 hPa
Pregled: Vedro
Vidljivost: greater than 10 km
2022/05/24 17:30 LYNI 241730Z 08008KT CAVOK 26/13 Q1009 NOSIG
BKPR - Priština, Srbija
Ažurirano: 24/05/2022 19:30
Partly Cloudy
Partly Cloudy
 Pravac vetra S
Vetar: S 15 km/h
Temperatura: 25°C
Tačka rose: 12°C
Vlažnost: 44%
Pritisak: 1012 hPa
Oblaci: Partly Cloudy
Vidljivost: 10 km
Cloud details: Few Clouds 1067 m
Partly Cloudy 2134 m
2022/05/24 17:30 BKPR 241730Z 01008KT 9999 FEW035CB SCT070 25/12 Q1012 NOSIG
 
LHPP - Pecs / Pogany, Hungary
Ažurirano: 24/05/2022 19:15
Vedro
Vedro
 Pravac vetra IJI
Vetar: IJI 11 km/h
Temperatura: 26°C
Tačka rose: 15°C
Vlažnost: 51%
Pritisak: 1007 hPa
Pregled: Vedro
Vidljivost: greater than 10 km
2022/05/24 17:15 LHPP 241715Z AUTO 11006KT 080V140 CAVOK 26/15 Q1007
LHUD - Szeged, Hungary
Ažurirano: 04/07/2019 01:45
NOT Current
Vedro
Vedro
 Pravac vetra S
Vetar: S 7 km/h
Temperatura: 18°C
Tačka rose: 13°C
Vlažnost: 73%
Pritisak: 1019 hPa
Pregled: Vedro
Vidljivost: greater than 10 km
2019/07/03 23:45 LHUD 032345Z 35004KT CAVOK 18/13 Q1019
LRTR - Timisoara, Romania
Ažurirano: 24/05/2022 19:30
Vedro
Vedro
 Pravac vetra I
Vetar: I 17 km/h
Temperatura: 19°C
Tačka rose: 14°C
Vlažnost: 73%
Pritisak: 1010 hPa
Pregled: Vedro
Vidljivost: greater than 10 km
2022/05/24 17:30 LRTR 241730Z 08009KT CAVOK 19/14 Q1010
 
LRCV - Craiova, Romania
Ažurirano: 24/05/2022 19:30
Vedro
Vedro
 Pravac vetra ISI
Vetar: ISI 9 km/h
Temperatura: 18°C
Tačka rose: 11°C
Vlažnost: 64%
Pritisak: 1012 hPa
Pregled: Vedro
Vidljivost: greater than 10 km
2022/05/24 17:30 LRCV 241730Z 06005KT CAVOK 18/11 Q1012
LBSF - Sofia, Bulgaria
Ažurirano: 24/05/2022 19:30
Vedro
Vedro
 Pravac vetra I
Vetar: I 24 km/h
Temperatura: 20°C
Tačka rose: 13°C
Vlažnost: 64%
Pritisak: 1013 hPa
Pregled: Vedro
Vidljivost: greater than 10 km
2022/05/24 17:30 LBSF 241730Z 09013KT CAVOK 20/13 Q1013 NOSIG
LWSK - Skoplje, Makedonija
Ažurirano: 24/05/2022 19:30
Vedro
Vedro
 Pravac vetra JJI
Vetar: JJI 9 km/h
Temperatura: 28°C
Heat Index: 28°C
Tačka rose: 16°C
Vlažnost: 48%
Pritisak: 1010 hPa
Pregled: Vedro
Vidljivost: greater than 10 km
2022/05/24 17:30 LWSK 241730Z 15005KT CAVOK 28/16 Q1010 NOSIG
 
LYPG - Podgorica, Crna Gora
Ažurirano: 24/05/2022 19:30
Vedro
Vedro
 Pravac vetra JZ
Vetar: JZ 6 km/h
Temperatura: 27°C
Tačka rose: 12°C
Vlažnost: 39%
Pritisak: 1010 hPa
Pregled: Vedro
Vidljivost: greater than 10 km
2022/05/24 17:30 LYPG 241730Z 23003KT CAVOK 27/12 Q1010 NOSIG
LQSA - Sarajevo, Bosna i Hercegovina
Ažurirano: 24/05/2022 19:30
Vedro
Vedro
 Pravac vetra SI
Vetar: SI 7 km/h
Temperatura: 26°C
Tačka rose: 11°C
Vlažnost: 39%
Pritisak: 1009 hPa
Pregled: Vedro
Vidljivost: greater than 10 km
2022/05/24 17:30 LQSA 241730Z 04004KT 360V080 CAVOK 26/11 Q1009 NOSIG
LDOS - Osijek, Hrvatksa
Ažurirano: 24/05/2022 19:30
Vedro
Vedro
 Pravac vetra I
Vetar: I 11 km/h
Temperatura: 26°C
Tačka rose: 16°C
Vlažnost: 54%
Pritisak: 1007 hPa
Pregled: Vedro
Vidljivost: greater than 10 km
2022/05/24 17:30 LDOS 241730Z 09006KT CAVOK 26/16 Q1007